Vremea mâine în Bălan - Romania

Vrei sa afli care e starea vremii acum in Harghita - Romania? Dorim sa iti furnizam starea vremii pentru Harghita - Romania. Starea vremii Harghita - Romania pentru astazi.

Vremea mâine în Bălan

Temperatura minimă:
8 °C

Temperatura maximă:
20.9 °C

Mâine va fi: Patchy rain nearby
Precipitații: 82 %
Umiditate: 70%
Viteza maximă vânt mâine:
7.6 km/h

Evoluția vremii in Bălan pe ore mâine

Ora: 03:00
Temperatura: °C
Sansa de precipitatii: %
Ora Descriere Temp Se simte Precipitatii Umiditate Vant
00:00Senin9.4°0%87%WSW 5.4 KM/H
01:00Senin9.1°8.5°0%88%WSW 5.8 KM/H
02:00Senin8.9°8.2°0%89%WSW 5.8 KM/H
03:00Senin8.6°0%90%WSW 5.8 KM/H
04:00Senin8.4°7.8°0%90%WSW 5.4 KM/H
05:00Senin8.2°7.6°0%90%WSW 5.4 KM/H
06:00Senin7.4°0%89%WSW 5 KM/H
07:00Senin9.6°9.6°0%83%WSW 4.3 KM/H
08:00Senin11.7°12.1°0%72%WSW 3.6 KM/H
09:00Senin14.5°15.3°0%60%SW 3.6 KM/H
10:00Senin17.1°17.1°0%50%SSW 3.2 KM/H
11:00Senin19.1°19.1°0%43%S 2.5 KM/H
12:00Senin20.2°20.2°0%38%SSE 2.2 KM/H
13:00Senin20.8°20.8°0%34%SSE 1.8 KM/H
14:00Patchy rain nearby20.9°20.9°67%32%SE 3.6 KM/H
15:00Patchy rain nearby20.3°20.3°81%36%SE 7.6 KM/H
16:00Thundery outbreaks in nearby19.2°19.2°0%42%ESE 5.8 KM/H
17:00Burniță ușoară17.6°17.6°100%49%N 4.7 KM/H
18:00Burniță ușoară13.3°13.8°100%79%WNW 4 KM/H
19:00Ploi usoare12.2°12.8°100%87%SSE 3.2 KM/H
20:00Thundery outbreaks in nearby11.9°12.2°0%89%S 4.3 KM/H
21:00Senin11.2°11.2°0%90%SSW 4.7 KM/H
22:00Senin10.4°10°0%90%WSW 5.8 KM/H
23:00Senin10°9.3°0%89%WSW 6.5 KM/H




tutorials